createdAt,value
2022-08-09T00:00:23.389Z,50.73
2022-08-09T00:02:52.582Z,51.06
2022-08-09T00:06:19.039Z,50.91
2022-08-09T00:08:31.440Z,50.69
2022-08-09T00:11:00.874Z,50.44
2022-08-09T00:13:34.461Z,50.36
2022-08-09T00:16:06.634Z,50.33
2022-08-09T00:18:36.158Z,50.59
2022-08-09T00:21:08.506Z,50.44
2022-08-09T00:23:57.031Z,50.63
2022-08-09T00:26:30.102Z,50.59
2022-08-09T00:29:02.106Z,50.46
2022-08-09T00:31:59.630Z,50.99
2022-08-09T00:34:19.869Z,50.96
2022-08-09T00:36:49.164Z,51.11
2022-08-09T00:40:09.447Z,51.54
2022-08-09T00:44:13.637Z,51.36
2022-08-09T00:44:56.569Z,51.69
2022-08-09T00:47:25.536Z,51.84
2022-08-09T00:49:56.541Z,51.83
2022-08-09T00:52:30.640Z,51.88
2022-08-09T00:55:02.234Z,52.51
2022-08-09T00:57:34.300Z,52.27
2022-08-09T01:00:22.128Z,52.22
2022-08-09T01:02:55.266Z,52.16
2022-08-09T01:05:53.150Z,52.85
2022-08-09T01:08:30.556Z,52.51
2022-08-09T01:11:16.875Z,52.22
2022-08-09T01:13:59.041Z,52.62
2022-08-09T01:16:33.318Z,52.70
2022-08-09T01:19:17.154Z,52.77
2022-08-09T01:22:22.526Z,52.32
2022-08-09T01:25:02.004Z,52.94
2022-08-09T01:27:34.886Z,53.01
2022-08-09T01:30:08.144Z,52.77
2022-08-09T01:32:38.918Z,52.57
2022-08-09T01:35:28.471Z,53.21
2022-08-09T01:38:10.550Z,53.25
2022-08-09T01:40:52.901Z,53.45
2022-08-09T01:43:51.137Z,53.33
2022-08-09T01:46:24.910Z,53.22
2022-08-09T01:48:56.987Z,53.44
2022-08-09T01:51:27.107Z,53.34
2022-08-09T01:54:02.397Z,53.95
2022-08-09T01:56:34.791Z,53.97
2022-08-09T01:59:10.472Z,54.87
2022-08-09T02:01:57.859Z,54.56
2022-08-09T02:04:28.319Z,54.16
2022-08-09T02:07:18.383Z,54.53
2022-08-09T02:10:06.242Z,54.67
2022-08-09T02:12:36.806Z,54.74
2022-08-09T02:15:15.348Z,55.53
2022-08-09T02:18:01.469Z,55.04
2022-08-09T02:20:39.613Z,55.52
2022-08-09T02:23:13.695Z,55.44
2022-08-09T02:25:55.716Z,55.23
2022-08-09T02:28:29.298Z,55.56
2022-08-09T02:31:05.994Z,55.22
2022-08-09T02:34:06.505Z,55.90
2022-08-09T02:36:32.193Z,55.60
2022-08-09T02:39:06.115Z,56.26
2022-08-09T02:41:39.516Z,56.15
2022-08-09T02:44:25.578Z,56.25
2022-08-09T02:47:04.486Z,55.98
2022-08-09T02:49:38.866Z,56.35
2022-08-09T02:52:13.485Z,56.28
2022-08-09T02:54:54.453Z,56.64
2022-08-09T02:57:27.171Z,56.64
2022-08-09T03:00:21.098Z,56.69
2022-08-09T03:03:00.487Z,56.96
2022-08-09T03:05:34.608Z,57.14
2022-08-09T03:08:05.453Z,57.57
2022-08-09T03:10:36.176Z,57.53
2022-08-09T03:13:08.634Z,57.36
2022-08-09T03:16:04.562Z,57.65
2022-08-09T03:18:31.346Z,58.09
2022-08-09T03:21:01.864Z,58.03
2022-08-09T03:23:30.552Z,57.47
2022-08-09T03:26:04.720Z,57.88
2022-08-09T03:28:35.471Z,57.70
2022-08-09T03:31:09.870Z,57.60
2022-08-09T03:33:53.618Z,57.50
2022-08-09T03:36:27.310Z,57.37
2022-08-09T03:38:57.080Z,57.31
2022-08-09T03:41:29.632Z,57.36
2022-08-09T03:44:07.649Z,56.79
2022-08-09T03:46:46.894Z,57.15
2022-08-09T03:49:21.346Z,57.29
2022-08-09T03:52:00.347Z,57.42
2022-08-09T03:54:34.940Z,57.45
2022-08-09T03:57:20.619Z,57.12
2022-08-09T03:59:53.371Z,57.58
2022-08-09T04:02:26.597Z,57.13
2022-08-09T04:04:59.255Z,57.35
2022-08-09T04:07:47.309Z,57.15
2022-08-09T04:10:20.640Z,57.06
2022-08-09T04:12:53.269Z,57.25
2022-08-09T04:15:39.051Z,57.04
2022-08-09T04:18:16.590Z,56.90
2022-08-09T04:20:48.358Z,57.44
2022-08-09T04:23:17.376Z,57.47
2022-08-09T04:25:49.852Z,57.38
2022-08-09T04:28:31.433Z,57.46
2022-08-09T04:31:07.718Z,57.53
2022-08-09T04:33:52.653Z,57.38
2022-08-09T04:36:28.579Z,57.46
2022-08-09T04:38:59.362Z,57.50
2022-08-09T04:41:32.374Z,57.71
2022-08-09T04:44:05.693Z,57.81
2022-08-09T04:46:57.089Z,57.93
2022-08-09T04:49:52.080Z,58.32
2022-08-09T04:52:18.710Z,58.31
2022-08-09T04:54:53.556Z,58.24
2022-08-09T04:57:24.136Z,58.42
2022-08-09T04:59:55.146Z,58.50
2022-08-09T05:02:24.497Z,58.54
2022-08-09T05:04:56.151Z,58.57
2022-08-09T05:07:29.230Z,58.83
2022-08-09T05:10:02.157Z,58.98
2022-08-09T05:12:33.135Z,59.08
2022-08-09T05:15:11.805Z,59.15
2022-08-09T05:18:42.765Z,59.24
2022-08-09T05:20:40.374Z,59.11
2022-08-09T05:23:53.908Z,59.21
2022-08-09T05:25:58.734Z,59.17
2022-08-09T05:28:27.535Z,59.49
2022-08-09T05:30:55.505Z,59.76
2022-08-09T05:33:26.563Z,59.63
2022-08-09T05:36:01.502Z,59.72
2022-08-09T05:38:31.197Z,59.73
2022-08-09T05:40:59.469Z,59.79
2022-08-09T05:43:28.972Z,59.79
2022-08-09T05:46:00.320Z,59.78
2022-08-09T05:48:33.315Z,59.97
2022-08-09T05:51:42.405Z,59.75
2022-08-09T05:53:57.628Z,59.82
2022-08-09T05:56:27.329Z,59.68
2022-08-09T05:58:58.990Z,59.96
2022-08-09T06:01:34.092Z,59.90
2022-08-09T06:04:12.197Z,59.95
2022-08-09T06:06:45.203Z,59.69
2022-08-09T06:09:40.417Z,60.05
2022-08-09T06:12:06.218Z,59.72
2022-08-09T06:14:36.466Z,59.86
2022-08-09T06:17:09.435Z,59.82
2022-08-09T06:19:39.705Z,59.82
2022-08-09T06:22:15.179Z,59.53
2022-08-09T06:24:48.994Z,59.93
2022-08-09T06:27:18.712Z,59.49
2022-08-09T06:30:04.512Z,59.45
2022-08-09T06:33:00.680Z,59.22
2022-08-09T06:35:56.282Z,59.05
2022-08-09T06:38:15.901Z,58.84
2022-08-09T06:40:46.081Z,58.84
2022-08-09T06:43:14.880Z,58.89
2022-08-09T06:46:10.713Z,58.84
2022-08-09T06:48:31.445Z,58.80
2022-08-09T06:51:00.487Z,58.52
2022-08-09T06:53:38.209Z,58.16
2022-08-09T06:56:09.181Z,57.99
2022-08-09T07:00:47.692Z,57.75
2022-08-09T07:01:27.641Z,57.84
2022-08-09T07:04:04.476Z,57.21
2022-08-09T07:06:33.142Z,57.61
2022-08-09T07:09:02.688Z,56.92
2022-08-09T07:11:34.250Z,57.41
2022-08-09T07:14:26.491Z,56.33
2022-08-09T07:16:58.293Z,56.20
2022-08-09T07:19:27.370Z,55.86
2022-08-09T07:21:59.846Z,55.75
2022-08-09T07:24:32.425Z,55.51
2022-08-09T07:27:27.311Z,55.31
2022-08-09T07:30:00.339Z,55.38
2022-08-09T07:32:33.035Z,55.01
2022-08-09T07:35:08.256Z,54.98
2022-08-09T07:37:43.650Z,54.58
2022-08-09T07:40:17.261Z,54.37
2022-08-09T07:42:56.022Z,54.33
2022-08-09T07:45:40.393Z,53.67
2022-08-09T07:48:22.635Z,53.51
2022-08-09T07:51:09.601Z,52.48
2022-08-09T07:54:04.936Z,52.69
2022-08-09T07:56:37.086Z,52.43
2022-08-09T07:59:15.875Z,51.71
2022-08-09T08:01:55.978Z,51.63
2022-08-09T08:04:31.203Z,51.23
2022-08-09T08:07:09.368Z,51.06
2022-08-09T08:10:05.857Z,51.07
2022-08-09T08:12:42.352Z,49.72
2022-08-09T08:15:16.676Z,49.92
2022-08-09T08:17:54.751Z,50.15
2022-08-09T08:20:28.728Z,49.91
2022-08-09T08:23:01.597Z,49.60
2022-08-09T08:25:44.729Z,48.50
2022-08-09T08:28:18.141Z,48.52
2022-08-09T08:30:56.502Z,47.85
2022-08-09T08:33:25.184Z,47.84
2022-08-09T08:35:59.846Z,48.26
2022-08-09T08:38:30.707Z,47.81
2022-08-09T08:41:01.807Z,46.12
2022-08-09T08:43:36.278Z,46.44
2022-08-09T08:46:31.934Z,46.82
2022-08-09T08:49:02.751Z,47.12
2022-08-09T08:51:38.810Z,45.66
2022-08-09T08:54:29.973Z,45.75
2022-08-09T08:57:00.172Z,46.25
2022-08-09T08:59:46.685Z,45.87
2022-08-09T09:02:31.037Z,45.65
2022-08-09T09:05:03.109Z,44.14
2022-08-09T09:07:36.747Z,45.31
2022-08-09T09:10:10.834Z,44.38
2022-08-09T09:12:41.431Z,44.37
2022-08-09T09:15:12.098Z,43.73
2022-08-09T09:17:51.670Z,42.57
2022-08-09T09:20:22.707Z,43.75
2022-08-09T09:22:56.448Z,43.67
2022-08-09T09:26:03.209Z,42.74
2022-08-09T09:29:01.669Z,42.83
2022-08-09T09:32:04.345Z,43.01
2022-08-09T09:34:18.308Z,43.21
2022-08-09T09:36:54.222Z,42.95
2022-08-09T09:39:42.737Z,41.70
2022-08-09T09:42:25.808Z,41.81
2022-08-09T09:45:00.456Z,42.65
2022-08-09T09:47:32.501Z,42.41
2022-08-09T09:50:14.832Z,42.49
2022-08-09T09:52:54.765Z,41.19
2022-08-09T09:55:31.896Z,42.17
2022-08-09T09:58:12.500Z,42.30
2022-08-09T10:00:52.530Z,41.36
2022-08-09T10:03:58.084Z,41.52
2022-08-09T10:06:42.580Z,41.19
2022-08-09T10:09:22.171Z,41.33
2022-08-09T10:12:12.354Z,41.49
2022-08-09T10:14:48.990Z,41.56
2022-08-09T10:17:39.671Z,40.91
2022-08-09T10:20:27.151Z,40.80
2022-08-09T10:23:17.453Z,40.63
2022-08-09T10:26:07.185Z,40.95
2022-08-09T10:28:39.872Z,41.04
2022-08-09T10:34:10.506Z,41.08
2022-08-09T10:36:50.856Z,41.15
2022-08-09T10:39:28.462Z,40.62
2022-08-09T10:41:57.647Z,41.11
2022-08-09T10:44:30.586Z,40.22
2022-08-09T10:48:19.524Z,40.76
2022-08-09T10:50:31.429Z,40.45
2022-08-09T10:53:13.900Z,40.73
2022-08-09T10:55:58.269Z,39.35
2022-08-09T10:58:33.927Z,39.21
2022-08-09T11:03:06.627Z,39.00
2022-08-09T11:04:19.434Z,39.06
2022-08-09T11:07:57.868Z,39.53
2022-08-09T11:10:39.359Z,40.24
2022-08-09T11:13:50.296Z,39.83
2022-08-09T11:16:39.031Z,39.71
2022-08-09T11:19:10.374Z,39.35
2022-08-09T11:22:10.491Z,39.58
2022-08-09T11:25:09.001Z,39.61
2022-08-09T11:28:03.535Z,39.48
2022-08-09T11:30:38.389Z,37.84
2022-08-09T11:33:13.581Z,38.31
2022-08-09T11:35:50.280Z,37.79
2022-08-09T11:38:32.558Z,38.81
2022-08-09T11:41:38.526Z,38.42
2022-08-09T11:44:10.481Z,38.61
2022-08-09T11:47:01.111Z,37.60
2022-08-09T11:50:53.983Z,37.99
2022-08-09T11:53:28.042Z,37.20
2022-08-09T11:56:42.391Z,38.00
2022-08-09T11:59:30.317Z,38.37
2022-08-09T12:02:18.187Z,37.54
2022-08-09T12:04:54.598Z,37.79
2022-08-09T12:07:29.198Z,36.53
2022-08-09T12:10:14.443Z,37.42
2022-08-09T12:13:03.630Z,37.71
2022-08-09T12:15:52.563Z,37.48
2022-08-09T12:18:29.546Z,37.72
2022-08-09T12:21:00.400Z,37.41
2022-08-09T12:23:57.939Z,37.50
2022-08-09T12:26:25.636Z,37.36
2022-08-09T12:29:10.223Z,37.46
2022-08-09T12:31:58.943Z,37.24
2022-08-09T12:34:37.728Z,36.36
2022-08-09T12:37:21.466Z,37.75
2022-08-09T12:40:08.003Z,37.05
2022-08-09T12:42:37.506Z,37.41
2022-08-09T12:45:33.485Z,37.60
2022-08-09T12:47:58.393Z,37.55
2022-08-09T12:50:28.896Z,37.71
2022-08-09T12:53:08.089Z,35.84
2022-08-09T12:56:14.738Z,36.42
2022-08-09T12:58:28.692Z,36.81
2022-08-09T13:00:58.233Z,36.10
2022-08-09T13:03:57.366Z,35.25
2022-08-09T13:06:34.274Z,36.03
2022-08-09T13:09:11.264Z,36.29
2022-08-09T13:11:44.377Z,36.36
2022-08-09T13:14:42.486Z,35.97
2022-08-09T13:17:08.696Z,35.93
2022-08-09T13:20:09.336Z,36.12
2022-08-09T13:22:35.429Z,35.67
2022-08-09T13:25:14.655Z,35.83
2022-08-09T13:27:54.536Z,35.38
2022-08-09T13:30:51.049Z,35.62
2022-08-09T13:33:23.169Z,35.10
2022-08-09T13:36:41.769Z,35.00
2022-08-09T13:38:56.734Z,35.31
2022-08-09T13:41:57.273Z,35.47
2022-08-09T13:44:17.605Z,35.67
2022-08-09T13:47:26.758Z,34.69
2022-08-09T13:49:43.650Z,35.05
2022-08-09T13:52:25.815Z,34.52
2022-08-09T13:55:00.197Z,34.41
2022-08-09T13:57:39.567Z,34.06
2022-08-09T14:00:13.026Z,34.36
2022-08-09T14:03:03.761Z,34.54
2022-08-09T14:05:59.480Z,34.20
2022-08-09T14:08:27.065Z,34.34
2022-08-09T14:11:00.258Z,33.65
2022-08-09T14:14:16.305Z,33.14
2022-08-09T14:16:28.465Z,34.09
2022-08-09T14:18:59.561Z,33.53
2022-08-09T14:21:29.497Z,33.64
2022-08-09T14:24:10.372Z,33.53
2022-08-09T14:26:51.355Z,33.94
2022-08-09T14:30:04.393Z,33.18
2022-08-09T14:32:13.363Z,32.80
2022-08-09T14:34:55.576Z,32.89
2022-08-09T14:37:28.589Z,32.95
2022-08-09T14:40:11.152Z,31.86
2022-08-09T14:42:42.827Z,31.99
2022-08-09T14:47:00.903Z,31.94
2022-08-09T14:48:03.677Z,32.23
2022-08-09T14:50:34.668Z,32.69
2022-08-09T14:53:11.696Z,31.79
2022-08-09T14:55:49.894Z,31.82
2022-08-09T14:58:20.824Z,31.70
2022-08-09T15:00:52.102Z,31.86
2022-08-09T15:03:21.284Z,32.41
2022-08-09T15:05:55.586Z,32.54
2022-08-09T15:08:26.597Z,32.34
2022-08-09T15:11:00.407Z,31.73
2022-08-09T15:13:48.663Z,30.64
2022-08-09T15:16:22.518Z,32.13
2022-08-09T15:18:52.376Z,31.06
2022-08-09T15:21:54.798Z,31.53
2022-08-09T15:24:15.272Z,31.78
2022-08-09T15:26:47.375Z,32.22
2022-08-09T15:30:59.159Z,30.84
2022-08-09T15:32:28.415Z,30.87
2022-08-09T15:35:00.459Z,31.36
2022-08-09T15:37:56.956Z,31.62
2022-08-09T15:40:32.047Z,31.02
2022-08-09T15:43:01.897Z,31.38
2022-08-09T15:46:07.338Z,30.84
2022-08-09T15:48:29.308Z,31.28
2022-08-09T15:51:01.184Z,31.06
2022-08-09T15:54:05.478Z,30.97
2022-08-09T15:56:23.338Z,31.48
2022-08-09T15:59:00.483Z,30.80
2022-08-09T16:01:35.489Z,30.85
2022-08-09T16:04:13.486Z,31.81
2022-08-09T16:06:50.405Z,31.66
2022-08-09T16:09:18.961Z,30.86
2022-08-09T16:12:01.685Z,31.40
2022-08-09T16:14:31.651Z,31.06
2022-08-09T16:17:02.533Z,31.27
2022-08-09T16:19:36.894Z,31.20
2022-08-09T16:22:18.372Z,30.88
2022-08-09T16:24:57.018Z,31.45
2022-08-09T16:27:29.725Z,31.80
2022-08-09T16:30:01.174Z,31.35
2022-08-09T16:32:46.168Z,31.63
2022-08-09T16:35:55.906Z,31.13
2022-08-09T16:38:11.208Z,31.46
2022-08-09T16:40:41.306Z,30.80
2022-08-09T16:43:09.883Z,31.65
2022-08-09T16:45:43.907Z,31.74
2022-08-09T16:48:40.666Z,32.28
2022-08-09T16:51:08.010Z,32.31
2022-08-09T16:54:02.504Z,32.36
2022-08-09T16:56:31.041Z,32.57
2022-08-09T16:58:59.575Z,32.12
2022-08-09T17:01:33.838Z,32.31
2022-08-09T17:04:05.452Z,32.33
2022-08-09T17:08:41.606Z,32.33
2022-08-09T17:09:46.255Z,32.02
2022-08-09T17:12:11.455Z,31.86
2022-08-09T17:14:39.895Z,31.76
2022-08-09T17:17:27.207Z,32.07
2022-08-09T17:20:32.362Z,32.65
2022-08-09T17:22:51.805Z,32.98
2022-08-09T17:25:23.644Z,32.84
2022-08-09T17:27:53.809Z,32.88
2022-08-09T17:30:26.092Z,32.56
2022-08-09T17:33:00.757Z,32.84
2022-08-09T17:35:41.286Z,33.29
2022-08-09T17:38:30.512Z,33.29
2022-08-09T17:41:00.081Z,33.29
2022-08-09T17:43:34.292Z,33.18
2022-08-09T17:46:06.798Z,33.71
2022-08-09T17:48:38.912Z,33.50
2022-08-09T17:51:19.312Z,33.60
2022-08-09T17:53:53.351Z,33.69
2022-08-09T17:56:27.386Z,33.78
2022-08-09T17:59:09.348Z,33.89
2022-08-09T18:02:03.314Z,33.51
2022-08-09T18:04:28.075Z,34.10
2022-08-09T18:07:04.771Z,33.89
2022-08-09T18:09:41.874Z,33.92
2022-08-09T18:12:17.217Z,33.42
2022-08-09T18:14:54.199Z,33.97
2022-08-09T18:17:26.905Z,33.38
2022-08-09T18:20:59.397Z,33.93
2022-08-09T18:22:56.638Z,33.76
2022-08-09T18:25:51.261Z,33.82
2022-08-09T18:30:33.863Z,33.41
2022-08-09T18:31:04.243Z,33.70
2022-08-09T18:33:34.284Z,33.69
2022-08-09T18:36:02.414Z,34.15
2022-08-09T18:38:31.830Z,33.93
2022-08-09T18:41:00.967Z,33.64
2022-08-09T18:43:35.206Z,33.88
2022-08-09T18:46:49.398Z,34.19
2022-08-09T18:48:51.973Z,34.22
2022-08-09T18:51:37.985Z,34.05
2022-08-09T18:54:20.087Z,34.13
2022-08-09T18:57:06.310Z,34.24
2022-08-09T18:59:49.133Z,34.46
2022-08-09T19:02:20.403Z,34.50
2022-08-09T19:05:03.283Z,34.53
2022-08-09T19:07:33.627Z,34.60
2022-08-09T19:10:16.699Z,34.72
2022-08-09T19:12:50.922Z,34.87
2022-08-09T19:15:33.756Z,35.18
2022-08-09T19:18:02.443Z,35.11
2022-08-09T19:20:39.153Z,35.24
2022-08-09T19:23:08.680Z,35.63
2022-08-09T19:26:01.869Z,35.74
2022-08-09T19:28:34.246Z,35.67
2022-08-09T19:31:07.574Z,35.73
2022-08-09T19:33:36.061Z,36.16
2022-08-09T19:36:04.491Z,35.88
2022-08-09T19:38:35.272Z,36.17
2022-08-09T19:41:09.659Z,36.34
2022-08-09T19:44:00.859Z,36.27
2022-08-09T19:46:35.801Z,36.45
2022-08-09T19:50:06.931Z,36.32
2022-08-09T19:52:04.384Z,36.52
2022-08-09T19:54:32.715Z,36.88
2022-08-09T19:57:02.307Z,36.79
2022-08-09T19:59:57.486Z,37.18
2022-08-09T20:04:26.144Z,37.22
2022-08-09T20:05:14.867Z,37.33
2022-08-09T20:07:58.741Z,37.39
2022-08-09T20:10:34.366Z,37.07
2022-08-09T20:13:08.367Z,37.58
2022-08-09T20:16:36.655Z,37.77
2022-08-09T20:18:27.554Z,37.89
2022-08-09T20:20:57.389Z,37.97
2022-08-09T20:23:39.347Z,37.90
2022-08-09T20:26:12.929Z,38.19
2022-08-09T20:28:48.469Z,38.70
2022-08-09T20:31:18.602Z,38.56
2022-08-09T20:33:52.322Z,38.81
2022-08-09T20:36:27.310Z,38.12
2022-08-09T20:39:29.009Z,38.29
2022-08-09T20:41:44.508Z,38.84
2022-08-09T20:44:26.974Z,39.00
2022-08-09T20:46:57.930Z,39.41
2022-08-09T20:49:27.492Z,39.16
2022-08-09T20:51:56.666Z,39.34
2022-08-09T20:54:25.922Z,39.79
2022-08-09T20:56:57.124Z,39.38
2022-08-09T21:00:20.670Z,39.58
2022-08-09T21:02:18.411Z,39.62
2022-08-09T21:05:53.118Z,39.83
2022-08-09T21:07:40.165Z,39.89
2022-08-09T21:10:11.571Z,39.82
2022-08-09T21:12:39.860Z,39.59
2022-08-09T21:15:12.346Z,40.02
2022-08-09T21:18:11.713Z,40.04
2022-08-09T21:20:31.028Z,40.07
2022-08-09T21:22:59.659Z,39.90
2022-08-09T21:26:01.850Z,40.55
2022-08-09T21:28:34.360Z,40.29
2022-08-09T21:31:16.529Z,40.26
2022-08-09T21:33:50.410Z,40.18
2022-08-09T21:36:23.097Z,40.60
2022-08-09T21:38:57.366Z,40.36
2022-08-09T21:42:04.514Z,41.19
2022-08-09T21:44:32.982Z,41.00
2022-08-09T21:47:07.722Z,41.00
2022-08-09T21:49:40.054Z,41.50
2022-08-09T21:52:14.956Z,41.43
2022-08-09T21:54:50.915Z,41.29
2022-08-09T21:57:39.340Z,41.42
2022-08-09T22:00:25.677Z,41.85
2022-08-09T22:02:58.876Z,42.22
2022-08-09T22:05:35.692Z,41.50
2022-08-09T22:08:11.884Z,42.28
2022-08-09T22:11:00.294Z,41.90
2022-08-09T22:13:34.914Z,41.77
2022-08-09T22:16:07.562Z,42.54
2022-08-09T22:18:38.597Z,42.07
2022-08-09T22:21:24.122Z,41.83
2022-08-09T22:24:00.071Z,41.71
2022-08-09T22:26:35.164Z,42.62
2022-08-09T22:29:09.177Z,43.11
2022-08-09T22:31:44.133Z,42.57
2022-08-09T22:34:20.487Z,42.05
2022-08-09T22:36:53.612Z,41.87
2022-08-09T22:39:57.482Z,42.30
2022-08-09T22:42:22.242Z,42.55
2022-08-09T22:45:00.251Z,43.24
2022-08-09T22:48:11.473Z,43.24
2022-08-09T22:50:31.060Z,43.33
2022-08-09T22:52:59.399Z,43.76
2022-08-09T22:55:39.489Z,43.89
2022-08-09T22:58:30.585Z,43.99
2022-08-09T23:01:01.023Z,44.27
2022-08-09T23:04:02.356Z,44.39
2022-08-09T23:06:34.697Z,44.66
2022-08-09T23:09:04.952Z,44.79
2022-08-09T23:11:33.366Z,44.49
2022-08-09T23:14:02.983Z,44.80
2022-08-09T23:16:31.330Z,44.78
2022-08-09T23:18:59.763Z,45.06
2022-08-09T23:21:33.515Z,45.54
2022-08-09T23:24:07.245Z,45.15
2022-08-09T23:26:36.132Z,45.31
2022-08-09T23:29:05.174Z,45.32
2022-08-09T23:31:33.861Z,45.11
2022-08-09T23:34:02.569Z,45.52
2022-08-09T23:36:34.100Z,45.44
2022-08-09T23:39:02.309Z,45.44
2022-08-09T23:41:30.504Z,45.18
2022-08-09T23:44:00.163Z,45.36
2022-08-09T23:46:29.190Z,45.41
2022-08-09T23:48:57.631Z,45.42
2022-08-09T23:51:27.513Z,45.48
2022-08-09T23:54:02.445Z,45.32
2022-08-09T23:56:52.541Z,45.74
2022-08-09T23:59:20.976Z,45.83
